sensor_id;sensor_type;location;lat;lon;timestamp;temperature;humidity
12309;DHT22;6217;48.150;17.142;2022-08-19T00:02:48;26.80;53.00
12309;DHT22;6217;48.150;17.142;2022-08-19T00:06:54;26.70;53.20
12309;DHT22;6217;48.150;17.142;2022-08-19T00:11:00;26.70;53.50
12309;DHT22;6217;48.150;17.142;2022-08-19T00:15:10;26.70;53.90
12309;DHT22;6217;48.150;17.142;2022-08-19T00:19:18;26.60;54.20
12309;DHT22;6217;48.150;17.142;2022-08-19T00:23:25;26.50;54.40
12309;DHT22;6217;48.150;17.142;2022-08-19T00:27:31;26.50;54.60
12309;DHT22;6217;48.150;17.142;2022-08-19T00:31:38;26.40;54.80
12309;DHT22;6217;48.150;17.142;2022-08-19T00:35:45;26.30;55.00
12309;DHT22;6217;48.150;17.142;2022-08-19T00:39:52;26.20;55.30
12309;DHT22;6217;48.150;17.142;2022-08-19T00:44:10;26.10;55.50
12309;DHT22;6217;48.150;17.142;2022-08-19T00:48:21;26.00;55.60
12309;DHT22;6217;48.150;17.142;2022-08-19T00:52:34;25.90;55.50
12309;DHT22;6217;48.150;17.142;2022-08-19T00:56:43;25.80;55.40
12309;DHT22;6217;48.150;17.142;2022-08-19T01:00:50;25.80;55.40
12309;DHT22;6217;48.150;17.142;2022-08-19T01:04:57;25.70;55.40
12309;DHT22;6217;48.150;17.142;2022-08-19T01:09:04;25.60;55.60
12309;DHT22;6217;48.150;17.142;2022-08-19T01:13:13;25.60;55.90
12309;DHT22;6217;48.150;17.142;2022-08-19T01:17:21;25.50;56.10
12309;DHT22;6217;48.150;17.142;2022-08-19T01:21:52;25.50;56.20
12309;DHT22;6217;48.150;17.142;2022-08-19T01:26:22;25.50;56.70
12309;DHT22;6217;48.150;17.142;2022-08-19T01:30:32;25.50;56.50
12309;DHT22;6217;48.150;17.142;2022-08-19T01:34:40;25.40;56.70
12309;DHT22;6217;48.150;17.142;2022-08-19T01:38:47;25.30;56.90
12309;DHT22;6217;48.150;17.142;2022-08-19T01:42:54;25.20;57.30
12309;DHT22;6217;48.150;17.142;2022-08-19T01:47:00;25.20;57.60
12309;DHT22;6217;48.150;17.142;2022-08-19T01:51:08;25.20;57.80
12309;DHT22;6217;48.150;17.142;2022-08-19T01:55:21;25.20;57.90
12309;DHT22;6217;48.150;17.142;2022-08-19T01:59:30;25.20;57.90
12309;DHT22;6217;48.150;17.142;2022-08-19T02:03:37;25.20;57.80
12309;DHT22;6217;48.150;17.142;2022-08-19T02:07:43;25.20;57.80
12309;DHT22;6217;48.150;17.142;2022-08-19T02:11:50;25.30;57.80
12309;DHT22;6217;48.150;17.142;2022-08-19T02:15:56;25.30;57.70
12309;DHT22;6217;48.150;17.142;2022-08-19T02:20:04;25.30;57.60
12309;DHT22;6217;48.150;17.142;2022-08-19T02:24:11;25.30;57.50
12309;DHT22;6217;48.150;17.142;2022-08-19T02:28:18;25.40;57.40
12309;DHT22;6217;48.150;17.142;2022-08-19T02:32:24;25.40;57.30
12309;DHT22;6217;48.150;17.142;2022-08-19T02:36:30;25.40;57.20
12309;DHT22;6217;48.150;17.142;2022-08-19T02:40:36;25.40;57.20
12309;DHT22;6217;48.150;17.142;2022-08-19T02:44:43;25.40;57.30
12309;DHT22;6217;48.150;17.142;2022-08-19T02:48:50;25.50;57.30
12309;DHT22;6217;48.150;17.142;2022-08-19T02:52:58;25.40;57.10
12309;DHT22;6217;48.150;17.142;2022-08-19T02:57:04;25.50;57.10
12309;DHT22;6217;48.150;17.142;2022-08-19T03:01:23;25.40;57.10
12309;DHT22;6217;48.150;17.142;2022-08-19T03:05:32;25.40;57.30
12309;DHT22;6217;48.150;17.142;2022-08-19T03:09:39;25.40;57.20
12309;DHT22;6217;48.150;17.142;2022-08-19T03:13:45;25.40;57.20
12309;DHT22;6217;48.150;17.142;2022-08-19T03:17:51;25.40;57.10
12309;DHT22;6217;48.150;17.142;2022-08-19T03:21:58;25.40;57.00
12309;DHT22;6217;48.150;17.142;2022-08-19T03:26:05;25.40;57.00
12309;DHT22;6217;48.150;17.142;2022-08-19T03:30:12;25.50;57.10
12309;DHT22;6217;48.150;17.142;2022-08-19T03:34:23;25.40;57.10
12309;DHT22;6217;48.150;17.142;2022-08-19T03:38:37;25.40;57.30
12309;DHT22;6217;48.150;17.142;2022-08-19T03:42:46;25.30;57.20
12309;DHT22;6217;48.150;17.142;2022-08-19T03:46:54;25.30;57.40
12309;DHT22;6217;48.150;17.142;2022-08-19T03:51:03;25.20;57.70
12309;DHT22;6217;48.150;17.142;2022-08-19T03:55:09;25.20;57.90
12309;DHT22;6217;48.150;17.142;2022-08-19T03:59:25;25.10;58.00
12309;DHT22;6217;48.150;17.142;2022-08-19T04:03:33;25.10;58.20
12309;DHT22;6217;48.150;17.142;2022-08-19T04:07:41;25.20;58.20
12309;DHT22;6217;48.150;17.142;2022-08-19T04:11:50;25.20;58.20
12309;DHT22;6217;48.150;17.142;2022-08-19T04:15:59;25.20;58.10
12309;DHT22;6217;48.150;17.142;2022-08-19T04:20:06;25.30;58.10
12309;DHT22;6217;48.150;17.142;2022-08-19T04:24:13;25.40;57.90
12309;DHT22;6217;48.150;17.142;2022-08-19T04:28:19;25.50;57.70
12309;DHT22;6217;48.150;17.142;2022-08-19T04:32:26;25.60;57.50
12309;DHT22;6217;48.150;17.142;2022-08-19T04:36:34;25.60;57.50
12309;DHT22;6217;48.150;17.142;2022-08-19T04:40:44;25.70;57.50
12309;DHT22;6217;48.150;17.142;2022-08-19T04:45:13;25.70;57.20
12309;DHT22;6217;48.150;17.142;2022-08-19T04:49:21;25.80;57.10
12309;DHT22;6217;48.150;17.142;2022-08-19T04:53:30;25.90;57.10
12309;DHT22;6217;48.150;17.142;2022-08-19T04:57:37;26.00;57.00
12309;DHT22;6217;48.150;17.142;2022-08-19T05:01:46;26.20;56.80
12309;DHT22;6217;48.150;17.142;2022-08-19T05:05:55;26.40;56.50
12309;DHT22;6217;48.150;17.142;2022-08-19T05:10:04;26.70;56.20
12309;DHT22;6217;48.150;17.142;2022-08-19T05:14:11;26.90;55.70
12309;DHT22;6217;48.150;17.142;2022-08-19T05:18:18;27.10;55.40
12309;DHT22;6217;48.150;17.142;2022-08-19T05:22:45;27.30;55.30
12309;DHT22;6217;48.150;17.142;2022-08-19T05:26:53;27.40;55.00
12309;DHT22;6217;48.150;17.142;2022-08-19T05:31:02;27.50;54.90
12309;DHT22;6217;48.150;17.142;2022-08-19T05:35:09;27.50;55.00
12309;DHT22;6217;48.150;17.142;2022-08-19T05:39:18;27.70;54.60
12309;DHT22;6217;48.150;17.142;2022-08-19T05:43:26;27.80;54.50
12309;DHT22;6217;48.150;17.142;2022-08-19T05:47:32;28.00;54.20
12309;DHT22;6217;48.150;17.142;2022-08-19T05:51:38;28.00;54.00
12309;DHT22;6217;48.150;17.142;2022-08-19T05:55:45;28.10;54.10
12309;DHT22;6217;48.150;17.142;2022-08-19T05:59:51;28.50;53.50
12309;DHT22;6217;48.150;17.142;2022-08-19T06:03:59;29.50;52.10
12309;DHT22;6217;48.150;17.142;2022-08-19T06:08:05;30.00;50.60
12309;DHT22;6217;48.150;17.142;2022-08-19T06:12:13;29.60;50.80
12309;DHT22;6217;48.150;17.142;2022-08-19T06:16:22;29.30;51.30
12309;DHT22;6217;48.150;17.142;2022-08-19T06:20:28;29.40;51.50
12309;DHT22;6217;48.150;17.142;2022-08-19T06:24:35;29.30;51.30
12309;DHT22;6217;48.150;17.142;2022-08-19T06:28:41;29.40;51.40
12309;DHT22;6217;48.150;17.142;2022-08-19T06:32:51;29.40;51.10
12309;DHT22;6217;48.150;17.142;2022-08-19T06:36:59;29.20;51.70
12309;DHT22;6217;48.150;17.142;2022-08-19T06:41:07;29.20;51.90
12309;DHT22;6217;48.150;17.142;2022-08-19T06:45:14;29.20;51.70
12309;DHT22;6217;48.150;17.142;2022-08-19T06:49:21;29.30;51.30
12309;DHT22;6217;48.150;17.142;2022-08-19T06:53:28;29.60;50.90
12309;DHT22;6217;48.150;17.142;2022-08-19T06:57:35;29.60;50.70
12309;DHT22;6217;48.150;17.142;2022-08-19T07:01:44;29.60;50.90
12309;DHT22;6217;48.150;17.142;2022-08-19T07:05:52;29.60;51.10
12309;DHT22;6217;48.150;17.142;2022-08-19T07:09:58;29.70;50.90
12309;DHT22;6217;48.150;17.142;2022-08-19T07:14:04;29.90;50.50
12309;DHT22;6217;48.150;17.142;2022-08-19T07:18:12;30.50;49.70
12309;DHT22;6217;48.150;17.142;2022-08-19T07:22:18;30.40;50.00
12309;DHT22;6217;48.150;17.142;2022-08-19T07:26:29;30.30;50.30
12309;DHT22;6217;48.150;17.142;2022-08-19T07:30:37;30.40;50.30
12309;DHT22;6217;48.150;17.142;2022-08-19T07:34:44;30.40;50.60
12309;DHT22;6217;48.150;17.142;2022-08-19T07:38:51;30.70;50.30
12309;DHT22;6217;48.150;17.142;2022-08-19T07:43:00;31.30;49.60
12309;DHT22;6217;48.150;17.142;2022-08-19T07:47:06;31.50;49.20
12309;DHT22;6217;48.150;17.142;2022-08-19T07:51:18;31.40;49.00
12309;DHT22;6217;48.150;17.142;2022-08-19T07:55:25;31.30;49.10
12309;DHT22;6217;48.150;17.142;2022-08-19T07:59:32;31.30;49.10
12309;DHT22;6217;48.150;17.142;2022-08-19T08:03:39;31.30;48.90
12309;DHT22;6217;48.150;17.142;2022-08-19T08:08:04;31.10;49.10
12309;DHT22;6217;48.150;17.142;2022-08-19T08:12:36;30.90;49.20
12309;DHT22;6217;48.150;17.142;2022-08-19T08:16:47;31.00;48.80
12309;DHT22;6217;48.150;17.142;2022-08-19T08:20:57;31.10;48.70
12309;DHT22;6217;48.150;17.142;2022-08-19T08:25:14;31.10;48.30
12309;DHT22;6217;48.150;17.142;2022-08-19T08:29:22;31.10;48.20
12309;DHT22;6217;48.150;17.142;2022-08-19T08:33:29;31.50;47.90
12309;DHT22;6217;48.150;17.142;2022-08-19T08:37:36;31.90;46.70
12309;DHT22;6217;48.150;17.142;2022-08-19T08:46:51;31.90;46.30
12309;DHT22;6217;48.150;17.142;2022-08-19T08:51:03;31.80;46.30
12309;DHT22;6217;48.150;17.142;2022-08-19T08:55:20;31.80;46.40
12309;DHT22;6217;48.150;17.142;2022-08-19T08:59:36;31.90;46.20
12309;DHT22;6217;48.150;17.142;2022-08-19T09:03:44;32.00;46.00
12309;DHT22;6217;48.150;17.142;2022-08-19T09:08:08;31.90;45.70
12309;DHT22;6217;48.150;17.142;2022-08-19T09:12:47;31.90;45.70
12309;DHT22;6217;48.150;17.142;2022-08-19T09:16:58;32.00;45.80
12309;DHT22;6217;48.150;17.142;2022-08-19T09:21:05;32.10;45.60
12309;DHT22;6217;48.150;17.142;2022-08-19T09:25:14;32.20;45.20
12309;DHT22;6217;48.150;17.142;2022-08-19T09:29:22;32.50;45.00
12309;DHT22;6217;48.150;17.142;2022-08-19T09:33:28;32.80;44.80
12309;DHT22;6217;48.150;17.142;2022-08-19T09:37:35;33.00;44.50
12309;DHT22;6217;48.150;17.142;2022-08-19T09:41:41;33.10;44.50
12309;DHT22;6217;48.150;17.142;2022-08-19T09:45:47;33.30;44.30
12309;DHT22;6217;48.150;17.142;2022-08-19T09:49:53;33.40;44.00
12309;DHT22;6217;48.150;17.142;2022-08-19T09:54:02;33.60;43.70
12309;DHT22;6217;48.150;17.142;2022-08-19T09:58:09;33.70;43.60
12309;DHT22;6217;48.150;17.142;2022-08-19T10:02:15;33.80;43.40
12309;DHT22;6217;48.150;17.142;2022-08-19T10:06:24;33.90;43.30
12309;DHT22;6217;48.150;17.142;2022-08-19T10:10:35;34.00;43.00
12309;DHT22;6217;48.150;17.142;2022-08-19T10:14:42;34.00;42.80
12309;DHT22;6217;48.150;17.142;2022-08-19T10:18:49;34.00;42.70
12309;DHT22;6217;48.150;17.142;2022-08-19T10:22:55;33.90;42.60
12309;DHT22;6217;48.150;17.142;2022-08-19T10:27:02;33.90;42.60
12309;DHT22;6217;48.150;17.142;2022-08-19T10:31:21;33.90;42.40
12309;DHT22;6217;48.150;17.142;2022-08-19T10:35:29;33.90;42.30
12309;DHT22;6217;48.150;17.142;2022-08-19T10:39:35;33.80;42.30
12309;DHT22;6217;48.150;17.142;2022-08-19T10:43:42;33.70;42.20
12309;DHT22;6217;48.150;17.142;2022-08-19T10:47:51;33.50;42.20
12309;DHT22;6217;48.150;17.142;2022-08-19T10:51:58;33.30;42.20
12309;DHT22;6217;48.150;17.142;2022-08-19T10:56:23;33.30;42.20
12309;DHT22;6217;48.150;17.142;2022-08-19T11:00:55;33.30;42.20
12309;DHT22;6217;48.150;17.142;2022-08-19T11:05:03;32.90;42.60
12309;DHT22;6217;48.150;17.142;2022-08-19T11:09:10;32.70;43.10
12309;DHT22;6217;48.150;17.142;2022-08-19T11:13:17;32.60;43.20
12309;DHT22;6217;48.150;17.142;2022-08-19T11:17:23;32.80;42.90
12309;DHT22;6217;48.150;17.142;2022-08-19T11:21:32;33.00;42.60
12309;DHT22;6217;48.150;17.142;2022-08-19T11:25:40;33.20;42.50
12309;DHT22;6217;48.150;17.142;2022-08-19T11:29:47;33.40;42.20
12309;DHT22;6217;48.150;17.142;2022-08-19T11:33:55;33.50;42.20
12309;DHT22;6217;48.150;17.142;2022-08-19T11:38:02;33.30;42.30
12309;DHT22;6217;48.150;17.142;2022-08-19T11:42:08;33.30;42.40
12309;DHT22;6217;48.150;17.142;2022-08-19T11:46:37;33.10;42.50
12309;DHT22;6217;48.150;17.142;2022-08-19T11:50:43;33.20;42.50
12309;DHT22;6217;48.150;17.142;2022-08-19T11:54:50;33.10;42.40
12309;DHT22;6217;48.150;17.142;2022-08-19T11:58:56;32.80;42.50
12309;DHT22;6217;48.150;17.142;2022-08-19T12:03:02;32.60;42.60
12309;DHT22;6217;48.150;17.142;2022-08-19T12:07:09;32.40;42.50
12309;DHT22;6217;48.150;17.142;2022-08-19T12:11:15;32.30;42.60
12309;DHT22;6217;48.150;17.142;2022-08-19T12:15:21;32.20;42.80
12309;DHT22;6217;48.150;17.142;2022-08-19T12:19:28;32.10;42.90
12309;DHT22;6217;48.150;17.142;2022-08-19T12:23:34;31.70;43.20
12309;DHT22;6217;48.150;17.142;2022-08-19T12:27:42;31.50;43.60
12309;DHT22;6217;48.150;17.142;2022-08-19T12:31:48;31.20;44.20
12309;DHT22;6217;48.150;17.142;2022-08-19T12:36:03;31.00;45.00
12309;DHT22;6217;48.150;17.142;2022-08-19T12:40:11;30.90;45.80
12309;DHT22;6217;48.150;17.142;2022-08-19T12:44:18;30.90;45.90
12309;DHT22;6217;48.150;17.142;2022-08-19T12:48:24;31.00;45.90
12309;DHT22;6217;48.150;17.142;2022-08-19T12:52:30;31.30;45.70
12309;DHT22;6217;48.150;17.142;2022-08-19T12:56:36;31.60;45.20
12309;DHT22;6217;48.150;17.142;2022-08-19T13:00:43;32.10;44.70
12309;DHT22;6217;48.150;17.142;2022-08-19T13:04:51;32.30;44.30
12309;DHT22;6217;48.150;17.142;2022-08-19T13:08:58;32.20;44.20
12309;DHT22;6217;48.150;17.142;2022-08-19T13:13:06;31.80;44.60
12309;DHT22;6217;48.150;17.142;2022-08-19T13:17:14;31.50;45.10
12309;DHT22;6217;48.150;17.142;2022-08-19T13:21:25;31.20;45.50
12309;DHT22;6217;48.150;17.142;2022-08-19T13:25:33;31.00;45.80
12309;DHT22;6217;48.150;17.142;2022-08-19T13:29:40;31.00;46.20
12309;DHT22;6217;48.150;17.142;2022-08-19T13:34:06;30.80;46.80
12309;DHT22;6217;48.150;17.142;2022-08-19T13:38:15;30.60;48.00
12309;DHT22;6217;48.150;17.142;2022-08-19T13:42:23;30.40;48.90
12309;DHT22;6217;48.150;17.142;2022-08-19T13:46:29;30.50;49.20
12309;DHT22;6217;48.150;17.142;2022-08-19T13:50:44;30.30;49.70
12309;DHT22;6217;48.150;17.142;2022-08-19T13:54:52;30.00;50.70
12309;DHT22;6217;48.150;17.142;2022-08-19T13:58:59;29.90;50.70
12309;DHT22;6217;48.150;17.142;2022-08-19T14:03:05;29.80;50.30
12309;DHT22;6217;48.150;17.142;2022-08-19T14:07:12;29.70;50.10
12309;DHT22;6217;48.150;17.142;2022-08-19T14:11:18;29.40;50.30
12309;DHT22;6217;48.150;17.142;2022-08-19T14:15:25;29.20;51.00
12309;DHT22;6217;48.150;17.142;2022-08-19T14:19:32;29.00;52.20
12309;DHT22;6217;48.150;17.142;2022-08-19T14:23:39;28.60;53.80
12309;DHT22;6217;48.150;17.142;2022-08-19T14:27:45;28.40;55.00
12309;DHT22;6217;48.150;17.142;2022-08-19T14:31:51;28.20;56.90
12309;DHT22;6217;48.150;17.142;2022-08-19T14:35:58;27.90;59.00
12309;DHT22;6217;48.150;17.142;2022-08-19T14:40:07;27.70;60.60
12309;DHT22;6217;48.150;17.142;2022-08-19T14:44:13;27.50;62.40
12309;DHT22;6217;48.150;17.142;2022-08-19T14:48:19;27.40;64.00
12309;DHT22;6217;48.150;17.142;2022-08-19T14:52:27;27.40;65.10
12309;DHT22;6217;48.150;17.142;2022-08-19T14:56:33;27.50;65.10
12309;DHT22;6217;48.150;17.142;2022-08-19T15:00:39;27.70;65.10
12309;DHT22;6217;48.150;17.142;2022-08-19T15:04:46;27.90;64.90
12309;DHT22;6217;48.150;17.142;2022-08-19T15:08:52;28.10;63.70
12309;DHT22;6217;48.150;17.142;2022-08-19T15:12:59;28.10;63.40
12309;DHT22;6217;48.150;17.142;2022-08-19T15:17:05;28.00;63.90
12309;DHT22;6217;48.150;17.142;2022-08-19T15:21:13;27.90;65.10
12309;DHT22;6217;48.150;17.142;2022-08-19T15:25:22;27.80;66.40
12309;DHT22;6217;48.150;17.142;2022-08-19T15:29:28;27.80;66.90
12309;DHT22;6217;48.150;17.142;2022-08-19T15:33:35;27.80;66.90
12309;DHT22;6217;48.150;17.142;2022-08-19T15:37:42;27.80;66.50
12309;DHT22;6217;48.150;17.142;2022-08-19T15:41:49;27.90;65.80
12309;DHT22;6217;48.150;17.142;2022-08-19T15:45:55;28.00;64.80
12309;DHT22;6217;48.150;17.142;2022-08-19T15:50:09;28.20;64.00
12309;DHT22;6217;48.150;17.142;2022-08-19T15:54:28;28.30;63.10
12309;DHT22;6217;48.150;17.142;2022-08-19T15:58:34;28.40;62.30
12309;DHT22;6217;48.150;17.142;2022-08-19T16:02:59;28.50;62.40
12309;DHT22;6217;48.150;17.142;2022-08-19T16:07:23;28.40;62.10
12309;DHT22;6217;48.150;17.142;2022-08-19T16:11:32;28.40;61.50
12309;DHT22;6217;48.150;17.142;2022-08-19T16:15:39;28.30;61.80
12309;DHT22;6217;48.150;17.142;2022-08-19T16:19:48;28.10;62.30
12309;DHT22;6217;48.150;17.142;2022-08-19T16:23:55;27.90;62.70
12309;DHT22;6217;48.150;17.142;2022-08-19T16:28:01;27.80;62.70
12309;DHT22;6217;48.150;17.142;2022-08-19T16:32:10;27.70;62.50
12309;DHT22;6217;48.150;17.142;2022-08-19T16:36:16;27.50;62.10
12309;DHT22;6217;48.150;17.142;2022-08-19T16:40:22;27.40;62.20
12309;DHT22;6217;48.150;17.142;2022-08-19T16:44:30;27.30;62.80
12309;DHT22;6217;48.150;17.142;2022-08-19T16:48:37;27.30;63.10
12309;DHT22;6217;48.150;17.142;2022-08-19T16:52:47;27.30;63.10
12309;DHT22;6217;48.150;17.142;2022-08-19T16:56:53;27.20;63.40
12309;DHT22;6217;48.150;17.142;2022-08-19T17:01:03;27.00;64.60
12309;DHT22;6217;48.150;17.142;2022-08-19T17:05:10;26.80;64.50
12309;DHT22;6217;48.150;17.142;2022-08-19T17:09:17;26.60;65.20
12309;DHT22;6217;48.150;17.142;2022-08-19T17:13:26;26.40;65.70
12309;DHT22;6217;48.150;17.142;2022-08-19T17:17:34;26.20;66.30
12309;DHT22;6217;48.150;17.142;2022-08-19T17:21:41;26.10;66.60
12309;DHT22;6217;48.150;17.142;2022-08-19T17:25:48;26.00;67.20
12309;DHT22;6217;48.150;17.142;2022-08-19T17:29:55;25.80;67.70
12309;DHT22;6217;48.150;17.142;2022-08-19T17:34:04;25.60;68.10
12309;DHT22;6217;48.150;17.142;2022-08-19T17:38:14;25.50;68.40
12309;DHT22;6217;48.150;17.142;2022-08-19T17:42:22;25.50;68.20
12309;DHT22;6217;48.150;17.142;2022-08-19T17:46:28;25.50;67.90
12309;DHT22;6217;48.150;17.142;2022-08-19T17:50:36;25.50;67.80
12309;DHT22;6217;48.150;17.142;2022-08-19T17:54:43;25.40;67.80
12309;DHT22;6217;48.150;17.142;2022-08-19T17:58:51;25.30;67.70
12309;DHT22;6217;48.150;17.142;2022-08-19T18:02:59;25.40;67.60
12309;DHT22;6217;48.150;17.142;2022-08-19T18:07:08;25.40;67.40
12309;DHT22;6217;48.150;17.142;2022-08-19T18:11:15;25.30;67.20
12309;DHT22;6217;48.150;17.142;2022-08-19T18:15:22;25.30;67.20
12309;DHT22;6217;48.150;17.142;2022-08-19T18:19:28;25.30;67.10
12309;DHT22;6217;48.150;17.142;2022-08-19T18:23:35;25.30;67.00
12309;DHT22;6217;48.150;17.142;2022-08-19T18:27:43;25.30;66.90
12309;DHT22;6217;48.150;17.142;2022-08-19T18:31:50;25.30;66.60
12309;DHT22;6217;48.150;17.142;2022-08-19T18:36:02;25.30;66.40
12309;DHT22;6217;48.150;17.142;2022-08-19T18:40:12;25.40;66.40
12309;DHT22;6217;48.150;17.142;2022-08-19T18:44:41;25.40;66.30
12309;DHT22;6217;48.150;17.142;2022-08-19T18:49:07;25.30;66.40
12309;DHT22;6217;48.150;17.142;2022-08-19T18:53:14;25.30;66.60
12309;DHT22;6217;48.150;17.142;2022-08-19T18:57:21;25.30;66.80
12309;DHT22;6217;48.150;17.142;2022-08-19T19:01:35;25.20;66.80
12309;DHT22;6217;48.150;17.142;2022-08-19T19:05:44;25.30;67.00
12309;DHT22;6217;48.150;17.142;2022-08-19T19:09:50;25.30;66.90
12309;DHT22;6217;48.150;17.142;2022-08-19T19:13:56;25.20;67.20
12309;DHT22;6217;48.150;17.142;2022-08-19T19:18:06;25.10;67.70
12309;DHT22;6217;48.150;17.142;2022-08-19T19:22:17;25.10;68.30
12309;DHT22;6217;48.150;17.142;2022-08-19T19:26:24;24.90;68.90
12309;DHT22;6217;48.150;17.142;2022-08-19T19:30:30;24.80;70.00
12309;DHT22;6217;48.150;17.142;2022-08-19T19:34:37;24.70;71.10
12309;DHT22;6217;48.150;17.142;2022-08-19T19:38:44;24.50;71.70
12309;DHT22;6217;48.150;17.142;2022-08-19T19:42:50;24.50;72.40
12309;DHT22;6217;48.150;17.142;2022-08-19T19:46:56;24.50;72.90
12309;DHT22;6217;48.150;17.142;2022-08-19T19:51:04;24.40;73.10
12309;DHT22;6217;48.150;17.142;2022-08-19T19:55:11;24.40;73.40
12309;DHT22;6217;48.150;17.142;2022-08-19T19:59:22;24.50;73.60
12309;DHT22;6217;48.150;17.142;2022-08-19T20:03:29;24.50;73.60
12309;DHT22;6217;48.150;17.142;2022-08-19T20:07:37;24.50;73.60
12309;DHT22;6217;48.150;17.142;2022-08-19T20:12:03;24.60;73.80
12309;DHT22;6217;48.150;17.142;2022-08-19T20:16:09;24.60;74.10
12309;DHT22;6217;48.150;17.142;2022-08-19T20:20:16;24.60;74.40
12309;DHT22;6217;48.150;17.142;2022-08-19T20:24:26;24.70;74.40
12309;DHT22;6217;48.150;17.142;2022-08-19T20:28:37;24.70;74.50
12309;DHT22;6217;48.150;17.142;2022-08-19T20:32:43;24.70;74.90
12309;DHT22;6217;48.150;17.142;2022-08-19T20:36:51;24.60;76.00
12309;DHT22;6217;48.150;17.142;2022-08-19T20:40:58;24.50;77.40
12309;DHT22;6217;48.150;17.142;2022-08-19T20:45:05;24.50;79.00
12309;DHT22;6217;48.150;17.142;2022-08-19T20:49:13;24.50;80.40
12309;DHT22;6217;48.150;17.142;2022-08-19T20:53:19;24.40;82.10
12309;DHT22;6217;48.150;17.142;2022-08-19T20:57:27;24.20;83.10
12309;DHT22;6217;48.150;17.142;2022-08-19T21:01:33;24.20;84.50
12309;DHT22;6217;48.150;17.142;2022-08-19T21:05:40;24.20;85.70
12309;DHT22;6217;48.150;17.142;2022-08-19T21:09:46;24.20;86.10
12309;DHT22;6217;48.150;17.142;2022-08-19T21:13:52;24.20;85.90
12309;DHT22;6217;48.150;17.142;2022-08-19T21:17:58;24.20;85.60
12309;DHT22;6217;48.150;17.142;2022-08-19T21:22:04;24.20;85.70
12309;DHT22;6217;48.150;17.142;2022-08-19T21:26:11;24.10;85.80
12309;DHT22;6217;48.150;17.142;2022-08-19T21:30:17;24.20;85.90
12309;DHT22;6217;48.150;17.142;2022-08-19T21:34:23;24.20;86.40
12309;DHT22;6217;48.150;17.142;2022-08-19T21:38:30;24.20;87.20
12309;DHT22;6217;48.150;17.142;2022-08-19T21:42:36;24.20;86.80
12309;DHT22;6217;48.150;17.142;2022-08-19T21:46:44;24.30;87.50
12309;DHT22;6217;48.150;17.142;2022-08-19T21:50:50;24.30;88.30
12309;DHT22;6217;48.150;17.142;2022-08-19T21:54:56;24.30;88.10
12309;DHT22;6217;48.150;17.142;2022-08-19T21:59:03;24.20;87.90
12309;DHT22;6217;48.150;17.142;2022-08-19T22:03:09;24.20;88.20
12309;DHT22;6217;48.150;17.142;2022-08-19T22:07:15;24.10;88.10
12309;DHT22;6217;48.150;17.142;2022-08-19T22:11:23;24.10;88.20
12309;DHT22;6217;48.150;17.142;2022-08-19T22:15:30;24.10;88.30
12309;DHT22;6217;48.150;17.142;2022-08-19T22:19:37;24.10;88.40
12309;DHT22;6217;48.150;17.142;2022-08-19T22:23:43;24.10;88.30
12309;DHT22;6217;48.150;17.142;2022-08-19T22:27:50;24.00;88.50
12309;DHT22;6217;48.150;17.142;2022-08-19T22:31:56;24.00;88.60
12309;DHT22;6217;48.150;17.142;2022-08-19T22:36:03;23.90;88.80
12309;DHT22;6217;48.150;17.142;2022-08-19T22:40:13;23.90;89.10
12309;DHT22;6217;48.150;17.142;2022-08-19T22:44:19;23.90;89.50
12309;DHT22;6217;48.150;17.142;2022-08-19T22:48:29;23.80;90.00
12309;DHT22;6217;48.150;17.142;2022-08-19T22:52:35;23.90;90.30
12309;DHT22;6217;48.150;17.142;2022-08-19T22:56:42;24.00;90.30
12309;DHT22;6217;48.150;17.142;2022-08-19T23:00:48;24.10;90.10
12309;DHT22;6217;48.150;17.142;2022-08-19T23:04:54;24.10;89.80
12309;DHT22;6217;48.150;17.142;2022-08-19T23:09:02;24.10;89.90
12309;DHT22;6217;48.150;17.142;2022-08-19T23:13:10;24.00;90.10
12309;DHT22;6217;48.150;17.142;2022-08-19T23:17:16;23.90;90.40
12309;DHT22;6217;48.150;17.142;2022-08-19T23:21:22;23.80;90.80
12309;DHT22;6217;48.150;17.142;2022-08-19T23:25:33;23.80;91.00
12309;DHT22;6217;48.150;17.142;2022-08-19T23:29:40;23.80;91.00
12309;DHT22;6217;48.150;17.142;2022-08-19T23:34:04;23.80;91.10
12309;DHT22;6217;48.150;17.142;2022-08-19T23:38:10;23.80;91.40
12309;DHT22;6217;48.150;17.142;2022-08-19T23:42:17;23.80;91.60
12309;DHT22;6217;48.150;17.142;2022-08-19T23:46:24;23.80;91.70
12309;DHT22;6217;48.150;17.142;2022-08-19T23:50:30;23.80;91.70
12309;DHT22;6217;48.150;17.142;2022-08-19T23:54:37;23.80;91.70
12309;DHT22;6217;48.150;17.142;2022-08-19T23:58:43;23.70;91.90
